Wetterdaten: Woche 09.01.17 - 15.01.17 (KW2)
Datum Zeit Temp. A. Feuchte A. Luftdruck Regen Wind Richtung Taupunkt Windchill Windben
09.01.2017 00:00 -3,7 C 83 % 1028,5 hPa 0,0 l/m 3,8 km/h N -6,2 C -3,7 C 12,9 km/h
09.01.2017 01:00 -4,0 C 83 % 1028,5 hPa 0,0 l/m 5,4 km/h N -6,5 C -4,0 C 12,9 km/h
09.01.2017 02:00 -3,7 C 83 % 1028,3 hPa 0,0 l/m 5,7 km/h N -6,1 C -3,7 C 13,7 km/h
09.01.2017 03:00 -3,5 C 83 % 1028,1 hPa 0,0 l/m 5,4 km/h N -6,0 C -3,5 C 15,7 km/h
09.01.2017 04:00 -3,6 C 83 % 1027,9 hPa 0,0 l/m 7,7 km/h N -6,1 C -5,0 C 19,3 km/h
09.01.2017 05:00 -3,7 C 83 % 1027,8 hPa 0,0 l/m 8,5 km/h N -6,2 C -6,1 C 19,3 km/h
09.01.2017 06:00 -3,5 C 82 % 1027,3 hPa 0,0 l/m 9,2 km/h N -6,1 C -6,5 C 21,3 km/h
09.01.2017 07:00 -3,2 C 82 % 1027,4 hPa 0,0 l/m 7,2 km/h N -5,8 C -4,4 C 17,7 km/h
09.01.2017 08:00 -3,4 C 81 % 1027,9 hPa 0,0 l/m 4,5 km/h N -6,1 C -3,4 C 16,1 km/h
09.01.2017 09:00 -5,2 C 78 % 1028,5 hPa 0,0 l/m 0,1 km/h N -8,4 C -5,2 C 1,6 km/h
09.01.2017 10:00 -4,6 C 82 % 1028,0 hPa 0,0 l/m 2,2 km/h N -7,2 C -4,6 C 8,0 km/h
09.01.2017 11:00 -2,6 C 83 % 1026,8 hPa 0,0 l/m 8,6 km/h N -5,1 C -4,9 C 20,1 km/h
09.01.2017 12:00 -1,9 C 82 % 1025,9 hPa 0,0 l/m 5,2 km/h N -4,5 C -1,9 C 13,3 km/h
09.01.2017 13:00 -1,9 C 82 % 1025,3 hPa 0,0 l/m 5,2 km/h N -4,6 C -1,9 C 13,7 km/h
09.01.2017 14:00 -2,0 C 82 % 1025,2 hPa 0,0 l/m 3,6 km/h N -4,6 C -2,0 C 10,9 km/h
09.01.2017 15:00 -2,2 C 83 % 1025,3 hPa 0,0 l/m 4,0 km/h N -4,7 C -2,2 C 12,1 km/h
09.01.2017 16:00 -2,9 C 83 % 1025,5 hPa 0,0 l/m 4,1 km/h N -5,4 C -2,9 C 15,7 km/h
09.01.2017 17:00 -3,3 C 82 % 1025,6 hPa 0,0 l/m 2,5 km/h N -6,0 C -3,3 C 13,7 km/h
09.01.2017 18:00 -3,4 C 81 % 1025,3 hPa 0,0 l/m 0,7 km/h N -6,2 C -3,4 C 6,0 km/h
09.01.2017 19:00 -3,3 C 80 % 1025,3 hPa 0,0 l/m 0,9 km/h N -6,2 C -3,3 C 5,6 km/h
09.01.2017 20:00 -3,1 C 81 % 1024,9 hPa 0,0 l/m 1,8 km/h N -6,0 C -3,1 C 6,0 km/h
09.01.2017 21:00 -3,1 C 81 % 1024,9 hPa 0,0 l/m 0,1 km/h N -5,9 C -3,1 C 2,4 km/h
09.01.2017 22:00 -3,7 C 80 % 1024,6 hPa 0,0 l/m 0,0 km/h N -6,7 C -3,7 C 3,2 km/h
09.01.2017 23:00 -4,2 C 78 % 1024,2 hPa 0,0 l/m 0,0 km/h N -7,6 C -4,2 C 0,4 km/h
10.01.2017 00:00 -4,6 C 76 % 1023,6 hPa 0,0 l/m 0,0 km/h N -8,1 C -4,6 C 0,8 km/h
10.01.2017 01:00 -4,6 C 76 % 1022,9 hPa 0,0 l/m 0,0 km/h N -8,2 C -4,6 C 0,0 km/h
10.01.2017 02:00 -4,8 C 76 % 1022,8 hPa 0,0 l/m 0,0 km/h N -8,3 C -4,8 C 0,4 km/h
10.01.2017 03:00 -5,3 C 76 % 1022,3 hPa 0,0 l/m 0,0 km/h N -8,8 C -5,3 C 0,4 km/h
10.01.2017 04:00 -5,6 C 76 % 1022,0 hPa 0,0 l/m 0,0 km/h N -9,1 C -5,6 C 1,2 km/h
10.01.2017 05:00 -6,5 C 77 % 1022,0 hPa 0,0 l/m 0,0 km/h N -9,9 C -6,5 C 2,0 km/h
10.01.2017 06:00 -6,9 C 79 % 1022,0 hPa 0,0 l/m 0,1 km/h N -9,9 C -6,9 C 4,8 km/h
10.01.2017 07:00 -6,8 C 82 % 1022,0 hPa 0,0 l/m 0,3 km/h N -9,4 C -6,8 C 5,2 km/h
10.01.2017 08:00 -6,5 C 82 % 1021,9 hPa 0,0 l/m 0,1 km/h N -9,0 C -6,5 C 4,8 km/h
10.01.2017 09:00 -6,4 C 82 % 1021,8 hPa 0,0 l/m 0,2 km/h N -9,0 C -6,4 C 5,2 km/h
10.01.2017 10:00 -6,0 C 81 % 1021,4 hPa 0,0 l/m 0,3 km/h N -8,8 C -6,0 C 5,6 km/h
10.01.2017 11:00 -5,9 C 77 % 1020,8 hPa 0,0 l/m 0,8 km/h N -9,3 C -5,9 C 8,1 km/h
10.01.2017 12:00 -5,1 C 71 % 1020,0 hPa 0,0 l/m 1,5 km/h N -9,6 C -5,1 C 8,4 km/h
10.01.2017 13:00 -5,5 C 65 % 1019,6 hPa 0,0 l/m 2,2 km/h N -11,0 C -5,5 C 10,9 km/h
10.01.2017 14:00 -5,6 C 60 % 1019,2 hPa 0,0 l/m 1,4 km/h N -12,2 C -5,6 C 9,3 km/h
10.01.2017 15:00 -6,3 C 64 % 1019,1 hPa 0,0 l/m 1,0 km/h N -12,0 C -6,3 C 7,6 km/h
10.01.2017 16:00 -7,3 C 65 % 1019,5 hPa 0,0 l/m 1,4 km/h N -12,8 C -7,3 C 10,5 km/h
10.01.2017 17:00 -7,8 C 65 % 1020,0 hPa 0,0 l/m 1,6 km/h N -13,2 C -7,8 C 10,5 km/h
10.01.2017 18:00 -8,2 C 65 % 1020,5 hPa 0,0 l/m 2,4 km/h N -13,6 C -8,2 C 12,9 km/h
10.01.2017 19:00 -9,1 C 67 % 1020,6 hPa 0,0 l/m 1,0 km/h N -14,2 C -9,1 C 7,6 km/h
10.01.2017 20:00 -9,7 C 67 % 1020,8 hPa 0,0 l/m 0,5 km/h N -14,7 C -9,7 C 6,4 km/h
10.01.2017 21:00 -10,2 C 68 % 1020,9 hPa 0,0 l/m 0,1 km/h N -14,9 C -10,2 C 2,0 km/h
10.01.2017 22:00 -10,4 C 70 % 1021,0 hPa 0,0 l/m 0,2 km/h N -14,8 C -10,4 C 4,8 km/h
10.01.2017 23:00 -11,0 C 70 % 1021,2 hPa 0,0 l/m 0,0 km/h N -15,4 C -11,0 C 0,4 km/h
11.01.2017 00:00 -12,2 C 73 % 1021,6 hPa 0,0 l/m 0,0 km/h N -16,1 C -12,2 C 0,8 km/h
11.01.2017 01:00 -12,2 C 75 % 1021,7 hPa 0,0 l/m 0,0 km/h N -15,7 C -12,2 C 0,8 km/h
11.01.2017 02:00 -12,3 C 76 % 1022,1 hPa 0,0 l/m 0,0 km/h N -15,7 C -12,3 C 1,6 km/h
11.01.2017 03:00 -13,4 C 75 % 1022,3 hPa 0,0 l/m 0,0 km/h N -16,8 C -13,4 C 0,0 km/h
11.01.2017 04:00 -15,0 C 76 % 1022,6 hPa 0,0 l/m 0,0 km/h N -18,3 C -15,0 C 0,0 km/h
11.01.2017 05:00 -15,7 C 78 % 1022,5 hPa 0,0 l/m 0,0 km/h N -18,7 C -15,7 C 0,0 km/h
11.01.2017 06:00 -15,5 C 81 % 1022,6 hPa 0,0 l/m 0,0 km/h N -18,1 C -15,5 C 0,0 km/h
11.01.2017 07:00 -15,4 C 81 % 1022,8 hPa 0,0 l/m 0,0 km/h N -17,9 C -15,4 C 0,0 km/h
11.01.2017 08:00 -15,8 C 82 % 1022,5 hPa 0,0 l/m 0,0 km/h N -18,2 C -15,8 C 0,0 km/h
11.01.2017 09:00 -13,4 C 83 % 1021,9 hPa 0,0 l/m 0,3 km/h N -15,7 C -13,4 C 1,6 km/h
11.01.2017 10:00 -10,5 C 83 % 1021,3 hPa 0,0 l/m 0,0 km/h N -12,8 C -10,5 C 1,2 km/h
11.01.2017 11:00 -8,6 C 78 % 1020,7 hPa 0,0 l/m 0,0 km/h N -11,8 C -8,6 C 2,4 km/h
11.01.2017 12:00 -7,4 C 71 % 1020,0 hPa 0,0 l/m 0,1 km/h N -11,7 C -7,4 C 4,0 km/h
11.01.2017 13:00 -6,3 C 67 % 1018,8 hPa 0,0 l/m 0,1 km/h N -11,4 C -6,3 C 4,0 km/h
11.01.2017 14:00 -4,8 C 63 % 1017,4 hPa 0,0 l/m 0,0 km/h N -10,7 C -4,8 C 0,8 km/h
11.01.2017 15:00 -4,1 C 60 % 1016,5 hPa 0,0 l/m 0,0 km/h N -10,7 C -4,1 C 0,0 km/h
11.01.2017 16:00 -6,1 C 60 % 1015,8 hPa 0,0 l/m 0,0 km/h N -12,5 C -6,1 C 0,0 km/h
11.01.2017 17:00 -7,9 C 67 % 1014,8 hPa 0,0 l/m 0,0 km/h N -12,9 C -7,9 C 0,0 km/h
11.01.2017 18:00 -7,0 C 76 % 1013,2 hPa 0,0 l/m 0,2 km/h N -10,5 C -7,0 C 1,6 km/h
11.01.2017 19:00 -4,2 C 71 % 1011,7 hPa 0,0 l/m 0,6 km/h N -8,7 C -4,2 C 6,0 km/h
11.01.2017 20:00 -3,6 C 67 % 1010,6 hPa 0,0 l/m 1,0 km/h N -8,9 C -3,6 C 6,8 km/h
11.01.2017 21:00 -4,7 C 72 % 1009,8 hPa 0,0 l/m 0,2 km/h N -9,1 C -4,7 C 1,6 km/h
11.01.2017 22:00 -4,4 C 75 % 1009,3 hPa 0,0 l/m 0,0 km/h N -8,3 C -4,4 C 0,8 km/h
11.01.2017 23:00 -4,3 C 78 % 1009,0 hPa 0,0 l/m 0,0 km/h N -7,6 C -4,3 C 0,0 km/h
12.01.2017 00:00 -4,3 C 81 % 1008,7 hPa 0,0 l/m 0,0 km/h N -7,1 C -4,3 C 0,4 km/h
12.01.2017 01:00 -4,5 C 82 % 1008,2 hPa 0,0 l/m 0,0 km/h N -7,0 C -4,5 C 1,2 km/h
12.01.2017 02:00 -0,2 C 83 % 1008,2 hPa 0,0 l/m 7,0 km/h N -2,8 C -2,3 C 26,2 km/h
12.01.2017 03:00 2,8 C 83 % 1008,9 hPa 0,3 l/m 11,5 km/h N 0,2 C -1,2 C 33,4 km/h
12.01.2017 04:00 3,4 C 77 % 1009,2 hPa 0,0 l/m 10,9 km/h N -0,3 C -0,3 C 27,8 km/h
12.01.2017 05:00 3,7 C 73 % 1009,8 hPa 0,0 l/m 10,0 km/h N -0,7 C 0,8 C 28,6 km/h
12.01.2017 06:00 4,3 C 72 % 1010,3 hPa 0,3 l/m 18,2 km/h N -0,4 C -3,3 C 40,2 km/h
12.01.2017 07:00 4,5 C 70 % 1010,8 hPa 0,0 l/m 16,1 km/h N -0,6 C -2,1 C 34,6 km/h
12.01.2017 08:00 4,3 C 72 % 1011,5 hPa 0,0 l/m 14,2 km/h N -0,2 C -1,1 C 36,2 km/h
12.01.2017 09:00 4,8 C 71 % 1012,0 hPa 0,0 l/m 12,2 km/h N 0,1 C 0,5 C 30,6 km/h
12.01.2017 10:00 5,0 C 71 % 1012,6 hPa 0,0 l/m 11,7 km/h N 0,1 C 1,0 C 33,4 km/h
12.01.2017 11:00 5,5 C 69 % 1012,8 hPa 0,0 l/m 10,3 km/h N 0,2 C 2,4 C 31,8 km/h
12.01.2017 12:00 6,1 C 67 % 1012,8 hPa 0,0 l/m 8,2 km/h N 0,4 C 4,7 C 25,3 km/h
12.01.2017 13:00 6,5 C 65 % 1012,9 hPa 0,0 l/m 9,3 km/h N 0,4 C 4,2 C 29,0 km/h
12.01.2017 14:00 6,4 C 67 % 1012,9 hPa 0,0 l/m 7,2 km/h N 0,7 C 5,7 C 24,1 km/h
12.01.2017 15:00 6,2 C 67 % 1012,7 hPa 0,0 l/m 5,1 km/h N 0,5 C 6,1 C 17,3 km/h
12.01.2017 16:00 5,8 C 67 % 1012,6 hPa 0,0 l/m 2,2 km/h N 0,2 C 5,8 C 13,3 km/h
12.01.2017 17:00 5,2 C 70 % 1012,5 hPa 0,0 l/m 1,1 km/h N 0,1 C 5,2 C 6,4 km/h
12.01.2017 18:00 5,0 C 75 % 1011,8 hPa 0,0 l/m 2,8 km/h N 1,0 C 5,0 C 10,9 km/h
12.01.2017 19:00 4,3 C 79 % 1010,8 hPa 0,0 l/m 0,1 km/h N 1,0 C 4,3 C 0,8 km/h
12.01.2017 20:00 3,5 C 81 % 1009,8 hPa 0,0 l/m 0,3 km/h N 0,4 C 3,5 C 3,2 km/h
12.01.2017 21:00 3,1 C 81 % 1008,4 hPa 0,0 l/m 0,1 km/h N 0,1 C 3,1 C 2,4 km/h
12.01.2017 22:00 2,3 C 79 % 1007,1 hPa 0,0 l/m 0,2 km/h N -0,9 C 2,3 C 4,0 km/h
12.01.2017 23:00 1,6 C 77 % 1004,8 hPa 0,0 l/m 0,0 km/h N -2,0 C 1,6 C 1,6 km/h
13.01.2017 00:00 0,9 C 79 % 1002,7 hPa 0,0 l/m 0,2 km/h N -2,4 C 0,9 C 4,4 km/h
13.01.2017 01:00 0,4 C 81 % 1000,6 hPa 0,0 l/m 0,0 km/h N -2,5 C 0,4 C 0,8 km/h
13.01.2017 02:00 0,0 C 82 % 999,2 hPa 0,0 l/m 0,0 km/h N -2,6 C 0,0 C 0,4 km/h
13.01.2017 03:00 -0,3 C 83 % 998,1 hPa 0,0 l/m 0,1 km/h N -3,0 C -0,3 C 1,6 km/h
13.01.2017 04:00 -0,7 C 83 % 997,2 hPa 0,0 l/m 0,0 km/h N -3,2 C -0,7 C 0,4 km/h
13.01.2017 05:00 -0,6 C 84 % 996,3 hPa 0,0 l/m 0,0 km/h N -3,0 C -0,6 C 0,4 km/h
13.01.2017 06:00 -0,2 C 84 % 997,3 hPa 0,3 l/m 1,5 km/h N -2,5 C -0,2 C 6,8 km/h
13.01.2017 07:00 2,0 C 84 % 999,3 hPa 2,6 l/m 2,0 km/h N -0,4 C 2,0 C 9,3 km/h
13.01.2017 08:00 2,8 C 84 % 998,9 hPa 0,0 l/m 2,0 km/h N 0,3 C 2,8 C 8,4 km/h
13.01.2017 09:00 4,0 C 84 % 999,4 hPa 0,0 l/m 1,3 km/h N 1,5 C 4,0 C 10,1 km/h
13.01.2017 10:00 4,5 C 80 % 999,4 hPa 0,0 l/m 4,6 km/h N 1,3 C 4,0 C 15,3 km/h
13.01.2017 11:00 5,4 C 68 % 999,0 hPa 0,0 l/m 7,6 km/h N -0,1 C 4,1 C 27,8 km/h
13.01.2017 12:00 6,1 C 57 % 997,6 hPa 0,3 l/m 15,3 km/h N -1,8 C 0,3 C 42,7 km/h
13.01.2017 13:00 5,8 C 55 % 997,2 hPa 0,0 l/m 17,1 km/h N -2,5 C -0,9 C 42,3 km/h
13.01.2017 14:00 5,3 C 54 % 997,5 hPa 0,0 l/m 16,6 km/h N -3,3 C -1,3 C 43,8 km/h
13.01.2017 15:00 4,8 C 54 % 998,7 hPa 0,0 l/m 13,8 km/h N -3,6 C -0,4 C 37,0 km/h
13.01.2017 16:00 4,2 C 58 % 999,2 hPa 0,0 l/m 15,8 km/h N -3,3 C -2,2 C 39,0 km/h
13.01.2017 17:00 3,4 C 62 % 999,7 hPa 0,0 l/m 15,4 km/h N -3,2 C -3,1 C 37,8 km/h
13.01.2017 18:00 2,9 C 64 % 999,5 hPa 0,0 l/m 19,2 km/h N -3,2 C -5,5 C 42,6 km/h
13.01.2017 19:00 2,2 C 71 % 999,1 hPa 0,0 l/m 18,7 km/h N -2,5 C -6,1 C 43,5 km/h
13.01.2017 20:00 1,7 C 75 % 999,0 hPa 0,0 l/m 16,8 km/h N -2,3 C -5,9 C 41,0 km/h
13.01.2017 21:00 1,7 C 74 % 999,2 hPa 0,0 l/m 18,0 km/h N -2,4 C -6,4 C 39,0 km/h
13.01.2017 22:00 1,8 C 72 % 999,7 hPa 0,0 l/m 15,7 km/h N -2,6 C -5,1 C 34,6 km/h
13.01.2017 23:00 1,5 C 76 % 999,8 hPa 0,0 l/m 15,7 km/h N -2,3 C -5,6 C 33,8 km/h
14.01.2017 00:00 1,6 C 76 % 1000,6 hPa 0,0 l/m 16,3 km/h N -2,3 C -5,7 C 37,4 km/h
14.01.2017 01:00 1,8 C 74 % 1001,3 hPa 0,0 l/m 14,2 km/h N -2,3 C -4,3 C 30,6 km/h
14.01.2017 02:00 1,8 C 74 % 1001,7 hPa 0,0 l/m 14,4 km/h N -2,4 C -4,4 C 31,8 km/h
14.01.2017 03:00 1,6 C 73 % 1002,1 hPa 0,0 l/m 13,3 km/h N -2,6 C -3,9 C 33,8 km/h
14.01.2017 04:00 1,3 C 72 % 1002,3 hPa 0,0 l/m 15,3 km/h N -3,2 C -5,5 C 35,4 km/h
14.01.2017 05:00 1,0 C 67 % 1003,0 hPa 0,0 l/m 13,6 km/h N -4,5 C -4,8 C 30,6 km/h
14.01.2017 06:00 0,6 C 65 % 1003,5 hPa 0,0 l/m 12,9 km/h N -5,2 C -4,9 C 28,6 km/h
14.01.2017 07:00 0,4 C 69 % 1003,9 hPa 0,0 l/m 6,0 km/h N -4,7 C -0,4 C 18,5 km/h
14.01.2017 08:00 0,2 C 69 % 1004,1 hPa 0,0 l/m 0,6 km/h N -4,8 C 0,2 C 5,2 km/h
14.01.2017 09:00 1,7 C 63 % 1003,9 hPa 0,0 l/m 3,9 km/h N -4,6 C 1,7 C 19,3 km/h
14.01.2017 10:00 2,9 C 63 % 1004,0 hPa 0,0 l/m 6,6 km/h N -3,4 C 2,3 C 22,1 km/h
14.01.2017 11:00 2,9 C 70 % 1003,5 hPa 0,0 l/m 8,4 km/h N -1,9 C 1,2 C 27,8 km/h
14.01.2017 12:00 3,0 C 75 % 1003,2 hPa 0,0 l/m 14,0 km/h N -1,0 C -2,8 C 40,7 km/h
14.01.2017 13:00 3,0 C 76 % 1003,3 hPa 0,3 l/m 13,2 km/h N -0,7 C -2,2 C 35,8 km/h
14.01.2017 14:00 3,4 C 76 % 1003,8 hPa 0,0 l/m 12,3 km/h N -0,5 C -1,2 C 36,6 km/h
14.01.2017 15:00 3,3 C 76 % 1004,7 hPa 0,0 l/m 12,9 km/h N -0,6 C -1,7 C 33,4 km/h
14.01.2017 16:00 2,6 C 78 % 1006,2 hPa 0,0 l/m 13,8 km/h N -0,9 C -3,1 C 33,4 km/h
14.01.2017 17:00 2,5 C 76 % 1007,3 hPa 0,0 l/m 12,9 km/h N -1,3 C -2,7 C 30,2 km/h
14.01.2017 18:00 2,1 C 77 % 1008,4 hPa 0,0 l/m 11,6 km/h N -1,5 C -2,2 C 27,4 km/h
14.01.2017 19:00 2,1 C 75 % 1009,5 hPa 0,0 l/m 8,8 km/h N -1,9 C -0,1 C 24,5 km/h
14.01.2017 20:00 2,4 C 75 % 1010,4 hPa 0,0 l/m 8,8 km/h N -1,7 C 0,2 C 24,1 km/h
14.01.2017 21:00 1,9 C 78 % 1011,0 hPa 0,0 l/m 10,2 km/h N -1,6 C -1,5 C 26,6 km/h
14.01.2017 22:00 1,3 C 81 % 1012,1 hPa 0,0 l/m 9,1 km/h N -1,7 C -1,2 C 22,1 km/h
14.01.2017 23:00 1,0 C 78 % 1012,5 hPa 0,0 l/m 7,8 km/h N -2,5 C -0,5 C 21,7 km/h
15.01.2017 00:00 0,8 C 74 % 1013,1 hPa 0,0 l/m 6,4 km/h N -3,4 C 0,3 C 18,9 km/h
15.01.2017 01:00 0,5 C 73 % 1013,6 hPa 0,0 l/m 3,7 km/h N -3,7 C 0,5 C 14,5 km/h
15.01.2017 02:00 0,3 C 76 % 1014,1 hPa 0,0 l/m 6,7 km/h N -3,4 C -0,3 C 20,9 km/h
15.01.2017 03:00 0,4 C 75 % 1014,4 hPa 0,0 l/m 7,4 km/h N -3,6 C -0,7 C 23,3 km/h
15.01.2017 04:00 0,4 C 74 % 1014,5 hPa 0,0 l/m 7,2 km/h N -3,7 C -0,6 C 24,1 km/h
15.01.2017 05:00 0,6 C 72 % 1014,8 hPa 0,0 l/m 8,8 km/h N -3,9 C -1,7 C 25,7 km/h
15.01.2017 06:00 0,6 C 71 % 1015,1 hPa 0,0 l/m 8,3 km/h N -4,1 C -1,3 C 23,3 km/h
15.01.2017 07:00 0,6 C 71 % 1015,9 hPa 0,0 l/m 10,7 km/h N -4,1 C -3,2 C 29,0 km/h
15.01.2017 08:00 0,6 C 71 % 1016,5 hPa 0,0 l/m 5,2 km/h N -4,1 C 0,6 C 22,1 km/h
15.01.2017 09:00 0,9 C 70 % 1017,5 hPa 0,0 l/m 6,5 km/h N -3,9 C 0,6 C 22,5 km/h
15.01.2017 10:00 1,2 C 70 % 1018,0 hPa 0,0 l/m 3,9 km/h N -3,8 C 1,2 C 15,7 km/h
15.01.2017 11:00 1,7 C 70 % 1018,3 hPa 0,0 l/m 3,6 km/h N -3,2 C 1,7 C 16,1 km/h
15.01.2017 12:00 2,4 C 63 % 1018,2 hPa 0,0 l/m 7,8 km/h N -3,9 C 1,1 C 26,6 km/h
15.01.2017 13:00 2,8 C 63 % 1018,3 hPa 0,0 l/m 6,8 km/h N -3,6 C 2,2 C 23,8 km/h
15.01.2017 14:00 2,4 C 62 % 1018,5 hPa 0,0 l/m 8,7 km/h N -4,2 C 0,4 C 24,2 km/h
15.01.2017 15:00 2,1 C 63 % 1018,9 hPa 0,0 l/m 6,4 km/h N -4,1 C 1,2 C 22,5 km/h
15.01.2017 16:00 1,3 C 66 % 1019,2 hPa 0,0 l/m 4,3 km/h N -4,3 C 1,3 C 16,9 km/h
15.01.2017 17:00 0,5 C 69 % 1019,5 hPa 0,0 l/m 4,4 km/h N -4,6 C 0,5 C 20,9 km/h
15.01.2017 18:00 0,3 C 68 % 1019,8 hPa 0,0 l/m 5,4 km/h N -4,9 C 0,1 C 16,5 km/h
15.01.2017 19:00 0,1 C 68 % 1020,1 hPa 0,0 l/m 4,3 km/h N -5,1 C 0,1 C 17,3 km/h
15.01.2017 20:00 -0,2 C 71 % 1020,0 hPa 0,0 l/m 3,9 km/h N -4,9 C -0,2 C 16,5 km/h
15.01.2017 21:00 -0,5 C 71 % 1020,1 hPa 0,0 l/m 2,2 km/h N -5,1 C -0,5 C 10,9 km/h
15.01.2017 22:00 -0,4 C 71 % 1020,4 hPa 0,0 l/m 4,0 km/h N -5,0 C -0,4 C 16,1 km/h
15.01.2017 23:00 -0,5 C 72 % 1020,3 hPa 0,0 l/m 2,3 km/h N -5,0 C -0,5 C 12,5 km/h
Min-Datum _ 11.01.17 13.01.17 13.01.17 - 09.01.17 - 11.01.17 11.01.17 09.01.17
_ Min-Zeit 08:15 14:45 05:45 - 09:15 - 05:30 08:15 09:15
Minimum _ -15,9 C 52 % 996,0 hPa - 0,0 km/h - -18,7 C -15,9 C 0,0 km/h
Max-Datum _ 12.01.17 09.01.17 09.01.17 13.01.17 13.01.17 - 13.01.17 12.01.17 13.01.17
_ Max-Zeit 13:15 02:30 01:30 07:00 18:45 - 09:15 14:30 14:00
Maximum _ 6,6 C 84 % 1028,6 hPa 2,6 l/m 22,1 km/h
N
- 1,6 C 6,4 C 53,1 km/h
N
Durchschnitt _ -1,6 C 74 % 1014,0 hPa #3,9 l/m 5,3 km/h N -5,7 C -3,1 C 15,6 km/h